Time;durP1;ratioP1;P1;durP2;ratioP2;P2;SDS_P1;SDS_P2;PMS_P1;PMS_P2;Temp;Humidity;BMP_temperature;BMP_pressure;BME280_temperature;BME280_humidity;BME280_pressure;Samples;Min_cycle;Max_cycle;Signal;HPM_P1;HPM_P2
2022/09/14 00:00:11;;;;;;;10.00;3.27;;;;;;;16.51;100.00;100653.78;5077655;28;20028;-83
2022/09/14 00:02:36;;;;;;;8.20;2.93;;;;;;;16.36;100.00;100649.81;5078176;28;20058;-84
2022/09/14 00:05:02;;;;;;;7.97;3.20;;;;;;;16.29;100.00;100643.72;5078346;28;20032;-84
2022/09/14 00:07:28;;;;;;;8.47;3.23;;;;;;;16.22;100.00;100640.34;5078100;28;20278;-84
2022/09/14 00:09:53;;;;;;;6.27;3.27;;;;;;;16.18;100.00;100637.31;5078423;28;20372;-84
2022/09/14 00:12:18;;;;;;;8.73;3.42;;;;;;;16.10;100.00;100630.38;5077804;28;20042;-84
2022/09/14 00:14:45;;;;;;;6.30;3.20;;;;;;;16.03;100.00;100639.88;5044183;28;20024;-84
2022/09/14 00:17:10;;;;;;;7.30;2.70;;;;;;;15.99;100.00;100638.72;5078589;28;20101;-84
2022/09/14 00:19:36;;;;;;;7.80;3.20;;;;;;;16.01;100.00;100644.78;5077553;28;20481;-84
2022/09/14 00:22:01;;;;;;;10.00;2.90;;;;;;;15.93;100.00;100646.09;5060697;28;20378;-84
2022/09/14 00:24:33;;;;;;;7.45;2.90;;;;;;;15.92;100.00;100644.41;5077589;28;20028;-84
2022/09/14 00:27:01;;;;;;;10.85;3.05;;;;;;;15.91;100.00;100643.56;5096013;28;20039;-84
2022/09/14 00:29:28;;;;;;;8.37;3.00;;;;;;;15.90;100.00;100644.69;5095632;28;20115;-83
2022/09/14 00:31:53;;;;;;;7.68;3.10;;;;;;;15.90;100.00;100644.69;5077423;28;20074;-84
2022/09/14 00:34:19;;;;;;;7.27;2.93;;;;;;;15.89;100.00;100637.53;5077427;28;20063;-84
2022/09/14 00:36:46;;;;;;;10.15;3.20;;;;;;;15.87;100.00;100644.34;5095244;28;20035;-84
2022/09/14 00:39:13;;;;;;;6.97;3.05;;;;;;;15.86;100.00;100635.31;5095436;28;20040;-84
2022/09/14 00:41:44;;;;;;;8.77;3.50;;;;;;;15.85;100.00;100624.63;5078012;28;20032;-84
2022/09/14 00:44:09;;;;;;;9.23;3.20;;;;;;;15.75;100.00;100626.16;5078029;28;20370;-84
2022/09/14 00:46:38;;;;;;;6.83;2.90;;;;;;;15.76;100.00;100622.31;5077088;28;20036;-83
2022/09/14 00:49:11;;;;;;;6.97;3.10;;;;;;;15.76;100.00;100625.03;5077249;28;20028;-83
2022/09/14 00:51:42;;;;;;;10.88;3.25;;;;;;;15.81;100.00;100618.00;5077010;28;20066;-84
2022/09/14 00:54:08;;;;;;;10.23;3.42;;;;;;;15.76;100.00;100605.09;5077010;28;20039;-84
2022/09/14 00:56:34;;;;;;;9.07;3.17;;;;;;;15.75;100.00;100600.69;5060055;28;20032;-84
2022/09/14 00:59:11;;;;;;;7.22;2.58;;;;;;;15.72;100.00;100602.03;5077407;28;20055;-84
2022/09/14 01:01:37;;;;;;;11.57;3.22;;;;;;;15.71;100.00;100588.63;5076782;28;20020;-84
2022/09/14 01:04:03;;;;;;;9.90;2.97;;;;;;;15.58;100.00;100582.44;5077037;28;20074;-84
2022/09/14 01:07:22;;;;;;;8.32;2.95;;;;;;;15.57;100.00;100583.53;5043534;28;20036;-84
2022/09/14 01:09:56;;;;;;;9.23;3.10;;;;;;;15.54;100.00;100584.03;5053767;28;20115;-84
2022/09/14 01:12:41;;;;;;;9.20;3.15;;;;;;;15.58;100.00;100587.91;5094491;28;20420;-84
2022/09/14 01:15:41;;;;;;;8.20;3.00;;;;;;;15.58;100.00;100576.16;5075667;28;20424;-83
2022/09/14 01:18:07;;;;;;;8.00;3.30;;;;;;;15.59;100.00;100570.44;5095003;28;20028;-84
2022/09/14 01:21:00;;;;;;;8.98;3.78;;;;;;;15.58;100.00;100571.50;5076182;28;20134;-84
2022/09/14 01:23:29;;;;;;;7.37;3.27;;;;;;;15.50;100.00;100576.59;5077285;28;20101;-84
2022/09/14 01:26:19;;;;;;;6.07;3.25;;;;;;;15.51;100.00;100579.06;5076107;28;20433;-84
2022/09/14 01:28:50;;;;;;;8.05;3.53;;;;;;;15.49;100.00;100589.47;5076316;28;20036;-84
2022/09/14 01:31:39;;;;;;;9.98;3.50;;;;;;;15.43;100.00;100591.28;5094820;28;20428;-84
2022/09/14 01:34:11;;;;;;;11.77;3.60;;;;;;;15.37;100.00;100586.03;5075510;28;20400;-84
2022/09/14 01:36:40;;;;;;;7.40;3.27;;;;;;;15.38;100.00;100579.47;5076545;28;20457;-84
2022/09/14 01:39:16;;;;;;;10.90;3.30;;;;;;;15.36;100.00;100581.63;5076011;28;20024;-84
2022/09/14 01:41:46;;;;;;;6.55;3.47;;;;;;;15.38;100.00;100583.03;5076380;28;20489;-84
2022/09/14 01:44:22;;;;;;;5.82;2.63;;;;;;;15.30;100.00;100574.44;5095045;28;20034;-84
2022/09/14 01:46:54;;;;;;;8.90;2.88;;;;;;;15.31;100.00;100574.19;5094244;28;20036;-85
2022/09/14 01:49:37;;;;;;;10.60;2.93;;;;;;;15.32;100.00;100570.38;5075631;28;20054;-84
2022/09/14 01:52:46;;;;;;;12.20;2.63;;;;;;;15.29;100.00;100565.41;5094132;28;20063;-84
2022/09/14 01:55:23;;;;;;;10.35;3.03;;;;;;;15.26;100.00;100568.66;5075962;28;20024;-84
2022/09/14 01:57:54;;;;;;;9.43;3.05;;;;;;;15.22;100.00;100564.75;5076245;28;20103;-85
2022/09/14 02:00:21;;;;;;;9.75;2.85;;;;;;;15.21;100.00;100563.13;5076896;28;20213;-84
2022/09/14 02:02:52;;;;;;;6.40;2.50;;;;;;;15.16;100.00;100561.16;5094026;28;20032;-84
2022/09/14 02:05:44;;;;;;;7.47;2.50;;;;;;;15.17;100.00;100557.34;5094622;28;20066;-84
2022/09/14 02:08:10;;;;;;;8.60;2.45;;;;;;;15.13;100.00;100564.38;5076192;28;20028;-84
2022/09/14 02:10:36;;;;;;;8.57;3.08;;;;;;;15.13;100.00;100555.34;5094153;28;20081;-84
2022/09/14 02:13:01;;;;;;;7.53;2.80;;;;;;;15.14;100.00;100559.75;5059148;28;20484;-84
2022/09/14 02:15:27;;;;;;;5.13;2.40;;;;;;;15.12;100.00;100557.28;5076018;28;20028;-84
2022/09/14 02:17:53;;;;;;;8.10;2.63;;;;;;;15.14;100.00;100559.75;5093792;28;20074;-84
2022/09/14 02:20:30;;;;;;;7.38;2.33;;;;;;;15.11;100.00;100563.00;5075361;28;20067;-84
2022/09/14 02:22:55;;;;;;;10.43;3.00;;;;;;;15.08;100.00;100558.84;5076503;28;20165;-84
2022/09/14 02:25:21;;;;;;;10.48;3.28;;;;;;;15.13;100.00;100564.38;5093972;28;20115;-84
2022/09/14 02:27:47;;;;;;;11.47;2.60;;;;;;;15.07;100.00;100558.03;5093764;28;20461;-84
2022/09/14 02:30:13;;;;;;;9.48;2.63;;;;;;;15.09;100.00;100563.25;5093665;28;20028;-84
2022/09/14 02:33:09;;;;;;;7.43;2.53;;;;;;;15.09;100.00;100566.78;5075747;28;20036;-84
2022/09/14 02:35:40;;;;;;;9.15;2.60;;;;;;;15.14;100.00;100571.50;5074862;28;20134;-84
2022/09/14 02:38:36;;;;;;;8.05;2.72;;;;;;;15.18;100.00;100569.91;5096131;28;20028;-84
2022/09/14 02:41:21;;;;;;;7.87;2.83;;;;;;;15.17;100.00;100561.97;5080540;28;20032;-83
2022/09/14 02:44:22;;;;;;;8.13;2.63;;;;;;;15.21;100.00;100563.94;5079633;28;20036;-84
2022/09/14 02:46:56;;;;;;;7.50;2.58;;;;;;;15.19;100.00;100568.00;5079134;28;20126;-84
2022/09/14 02:49:45;;;;;;;9.32;2.72;;;;;;;15.23;100.00;100559.03;5079455;28;20040;-84
2022/09/14 02:52:13;;;;;;;13.48;2.65;;;;;;;15.24;100.00;100559.88;5080166;28;20035;-84
2022/09/14 02:55:03;;;;;;;9.67;2.70;;;;;;;15.22;100.00;100559.31;5080109;28;20036;-84
2022/09/14 02:57:28;;;;;;;8.05;2.65;;;;;;;15.22;100.00;100553.84;5078330;28;20093;-84
2022/09/14 02:59:54;;;;;;;13.53;2.53;;;;;;;15.25;100.00;100553.31;5062574;28;20028;-84
2022/09/14 03:02:20;;;;;;;6.90;2.45;;;;;;;15.19;100.00;100551.63;5062744;28;20434;-84
2022/09/14 03:04:45;;;;;;;9.73;2.90;;;;;;;15.23;100.00;100548.13;5079377;28;20127;-84
2022/09/14 03:07:11;;;;;;;8.73;3.47;;;;;;;15.24;100.00;100540.75;5097260;28;20032;-84
2022/09/14 03:09:36;;;;;;;6.07;2.70;;;;;;;15.21;100.00;100544.00;5079265;28;20055;-84
2022/09/14 03:12:02;;;;;;;12.97;3.30;;;;;;;15.20;100.00;100542.34;5079346;28;20362;-84
2022/09/14 03:14:27;;;;;;;8.00;2.60;;;;;;;15.16;100.00;100531.09;5078827;28;20020;-84
2022/09/14 03:16:53;;;;;;;9.10;2.88;;;;;;;15.13;100.00;100533.50;5079142;28;20122;-84
2022/09/14 03:19:18;;;;;;;6.83;2.53;;;;;;;15.15;100.00;100536.81;5062194;28;20519;-84
2022/09/14 03:21:43;;;;;;;9.97;3.43;;;;;;;15.16;100.00;100533.84;5060430;28;20055;-84
2022/09/14 03:24:09;;;;;;;6.33;2.57;;;;;;;15.11;100.00;100533.75;5077849;28;20462;-84
2022/09/14 03:26:38;;;;;;;7.15;2.53;;;;;;;15.14;100.00;100532.44;5060381;28;20508;-84
2022/09/14 03:29:04;;;;;;;10.27;2.47;;;;;;;15.15;100.00;100534.09;5045324;28;20039;-84
2022/09/14 03:31:31;;;;;;;8.27;2.67;;;;;;;15.06;100.00;100523.59;5077396;28;20039;-84
2022/09/14 03:33:59;;;;;;;7.20;2.50;;;;;;;15.06;100.00;100517.31;5077337;28;20474;-84
2022/09/14 03:36:27;;;;;;;8.90;3.20;;;;;;;15.09;100.00;100523.09;5077323;28;20032;-84
2022/09/14 03:38:54;;;;;;;12.23;3.00;;;;;;;15.08;100.00;100515.13;5095161;28;20067;-84
2022/09/14 03:41:21;;;;;;;5.17;2.60;;;;;;;15.07;100.00;100516.22;5076902;28;20028;-84
2022/09/14 03:43:46;;;;;;;7.47;2.85;;;;;;;15.07;100.00;100508.00;5077155;28;20024;-84
2022/09/14 03:46:15;;;;;;;11.53;2.90;;;;;;;15.04;100.00;100500.31;5061314;28;20035;-84
2022/09/14 03:48:41;;;;;;;8.97;2.70;;;;;;;15.04;100.00;100503.91;5076987;28;20826;-85
2022/09/14 03:51:11;;;;;;;7.68;2.67;;;;;;;15.01;100.00;100504.38;5095257;28;20024;-84
2022/09/14 03:53:38;;;;;;;7.68;3.25;;;;;;;14.99;100.00;100505.75;5077683;28;20064;-84
2022/09/14 03:56:13;;;;;;;13.07;3.00;;;;;;;15.00;100.00;100508.22;5076871;28;20479;-84
2022/09/14 03:58:39;;;;;;;7.50;2.60;;;;;;;14.98;100.00;100502.16;5077091;28;20024;-84
2022/09/14 04:01:06;;;;;;;8.20;2.80;;;;;;;14.96;100.00;100492.59;5076903;28;20031;-84
2022/09/14 04:03:32;;;;;;;8.18;3.05;;;;;;;14.98;100.00;100491.22;5094750;28;20393;-84
2022/09/14 04:06:04;;;;;;;9.20;2.63;;;;;;;14.96;100.00;100495.31;5076910;28;20490;-86
2022/09/14 04:08:30;;;;;;;7.60;2.20;;;;;;;14.97;100.00;100492.34;5077120;28;20537;-84
2022/09/14 04:10:58;;;;;;;12.30;2.33;;;;;;;14.95;100.00;100490.94;5060247;28;20492;-84
2022/09/14 04:13:26;;;;;;;9.88;2.38;;;;;;;14.95;100.00;100491.75;5060028;28;20085;-84
2022/09/14 04:15:57;;;;;;;7.88;2.55;;;;;;;14.96;100.00;100489.84;5095159;28;20118;-84
2022/09/14 04:18:22;;;;;;;8.10;2.67;;;;;;;14.94;100.00;100492.00;5061003;28;20066;-85
2022/09/14 04:22:12;;;;;;;5.63;2.20;;;;;;;14.93;100.00;100495.84;5194220;27;20429;-85
2022/09/14 04:24:37;;;;;;;4.38;2.40;;;;;;;14.91;100.00;100491.44;5154974;27;20512;-85
2022/09/14 04:27:03;;;;;;;6.63;2.70;;;;;;;14.89;100.00;100490.03;5137482;27;20041;-84
2022/09/14 04:29:29;;;;;;;7.77;2.60;;;;;;;14.88;100.00;100480.19;5154922;27;20026;-85
2022/09/14 04:31:54;;;;;;;10.85;2.70;;;;;;;14.89;100.00;100482.66;5155043;27;20034;-84
2022/09/14 04:34:20;;;;;;;9.50;2.70;;;;;;;14.90;100.00;100486.22;5137315;27;20468;-85
2022/09/14 04:36:45;;;;;;;8.38;2.20;;;;;;;14.84;100.00;100485.34;5120152;27;20429;-84
2022/09/14 04:39:12;;;;;;;5.20;2.13;;;;;;;14.84;100.00;100476.31;5173325;27;20022;-85
2022/09/14 04:41:40;;;;;;;7.07;2.30;;;;;;;14.82;100.00;100479.31;5154289;27;20018;-85
2022/09/14 04:44:05;;;;;;;7.22;2.30;;;;;;;14.80;100.00;100467.78;5154226;27;20018;-84
2022/09/14 04:46:35;;;;;;;12.70;2.70;;;;;;;14.80;100.00;100475.16;5154590;27;20132;-85
2022/09/14 04:49:01;;;;;;;8.63;2.70;;;;;;;14.81;100.00;100476.84;5154240;27;20485;-85
2022/09/14 04:51:32;;;;;;;10.77;2.50;;;;;;;14.80;100.00;100473.25;5154133;27;20034;-85
2022/09/14 04:54:00;;;;;;;5.53;2.28;;;;;;;14.80;100.00;100475.97;5173033;27;20045;-85
2022/09/14 04:56:27;;;;;;;4.68;2.30;;;;;;;14.83;100.00;100469.19;5153777;27;20023;-84
2022/09/14 04:58:55;;;;;;;8.10;2.35;;;;;;;14.79;100.00;100459.84;5154149;27;20030;-85
2022/09/14 05:01:23;;;;;;;7.57;2.58;;;;;;;14.79;100.00;100460.66;5154102;27;20033;-85
2022/09/14 05:03:49;;;;;;;5.87;2.20;;;;;;;14.77;100.00;100456.56;5172788;27;20035;-85
2022/09/14 05:06:17;;;;;;;9.75;2.10;;;;;;;14.75;100.00;100456.81;5153854;27;20434;-84
2022/09/14 05:08:43;;;;;;;7.22;1.90;;;;;;;14.76;100.00;100455.72;5174134;27;20030;-85
2022/09/14 05:11:13;;;;;;;7.00;2.10;;;;;;;14.73;100.00;100450.75;5137173;27;20058;-85
2022/09/14 05:13:40;;;;;;;5.20;1.90;;;;;;;14.70;100.00;100443.94;5153733;27;20023;-84
2022/09/14 05:16:12;;;;;;;8.73;2.00;;;;;;;14.74;100.00;100452.41;5153740;27;20062;-84
2022/09/14 05:18:37;;;;;;;7.63;1.88;;;;;;;14.68;100.00;100447.97;5153466;27;20429;-86
2022/09/14 05:21:04;;;;;;;4.83;1.90;;;;;;;14.69;100.00;100455.06;5153483;27;20191;-84
2022/09/14 05:23:30;;;;;;;6.47;2.10;;;;;;;14.68;100.00;100454.25;5172503;27;20026;-83
2022/09/14 05:25:57;;;;;;;5.20;2.00;;;;;;;14.73;100.00;100459.81;5153224;27;20526;-84
2022/09/14 05:28:24;;;;;;;5.78;2.10;;;;;;;14.73;100.00;100458.94;5153692;27;20031;-82
2022/09/14 05:30:50;;;;;;;9.73;1.98;;;;;;;14.76;100.00;100458.44;5136341;27;20026;-84
2022/09/14 05:33:15;;;;;;;8.77;2.30;;;;;;;14.80;100.00;100458.78;5141179;27;20036;-85
2022/09/14 05:35:40;;;;;;;7.07;2.10;;;;;;;14.84;100.00;100458.03;5139735;27;20035;-85
2022/09/14 05:38:06;;;;;;;8.73;2.37;;;;;;;14.83;100.00;100453.63;5139294;27;20037;-85
2022/09/14 05:40:34;;;;;;;6.55;2.28;;;;;;;14.83;100.00;100461.00;5122348;27;20113;-85
2022/09/14 05:43:00;;;;;;;5.67;2.43;;;;;;;14.85;100.00;100458.84;5139481;27;20424;-84
2022/09/14 05:45:25;;;;;;;10.20;2.53;;;;;;;14.84;100.00;100459.94;5122128;27;20087;-85
2022/09/14 05:47:51;;;;;;;8.00;2.53;;;;;;;14.85;100.00;100467.03;5122014;27;20058;-85
2022/09/14 05:50:19;;;;;;;10.00;2.80;;;;;;;14.78;100.00;100461.78;5104712;27;20103;-85
2022/09/14 05:52:45;;;;;;;7.13;3.17;;;;;;;14.87;100.00;100468.44;5139650;27;20477;-85
2022/09/14 05:55:10;;;;;;;9.73;3.20;;;;;;;14.85;100.00;100473.34;5122059;27;20083;-85
2022/09/14 05:57:38;;;;;;;9.87;3.20;;;;;;;14.85;100.00;100470.59;5138878;27;20065;-83
2022/09/14 06:00:04;;;;;;;9.98;2.90;;;;;;;14.85;100.00;100469.75;5139070;27;20054;-85
2022/09/14 06:02:29;;;;;;;8.20;3.00;;;;;;;14.88;100.00;100467.38;5121930;27;20053;-85
2022/09/14 06:04:55;;;;;;;8.17;2.70;;;;;;;14.83;100.00;100475.47;5138957;27;20462;-84
2022/09/14 06:07:20;;;;;;;6.37;2.60;;;;;;;14.85;100.00;100473.34;5121586;27;20084;-84
2022/09/14 06:09:46;;;;;;;9.05;2.50;;;;;;;14.83;100.00;100472.75;5138964;27;20119;-85
2022/09/14 06:12:13;;;;;;;8.57;2.73;;;;;;;14.82;100.00;100471.13;5121412;27;20067;-85
2022/09/14 06:14:39;;;;;;;8.63;2.72;;;;;;;14.84;100.00;100476.31;5157067;27;20061;-84
2022/09/14 06:17:05;;;;;;;7.85;2.53;;;;;;;14.83;100.00;100475.47;5157337;27;20030;-84
2022/09/14 06:19:30;;;;;;;10.50;2.70;;;;;;;14.76;100.00;100480.28;5157239;27;20078;-84
2022/09/14 06:21:55;;;;;;;5.18;2.63;;;;;;;14.77;100.00;100487.41;5138467;27;20125;-84
2022/09/14 06:24:21;;;;;;;10.03;3.20;;;;;;;14.78;100.00;100482.78;5138502;27;20038;-83
2022/09/14 06:26:46;;;;;;;7.70;3.57;;;;;;;14.79;100.00;100487.16;5137807;27;20489;-84
2022/09/14 06:29:12;;;;;;;9.70;3.10;;;;;;;14.78;100.00;100477.31;5138612;27;20102;-84
2022/09/14 06:31:38;;;;;;;7.93;3.17;;;;;;;14.80;100.00;100473.25;5104080;27;20478;-84
2022/09/14 06:34:04;;;;;;;6.45;3.05;;;;;;;14.80;100.00;100480.63;5138376;27;20039;-84
2022/09/14 06:36:29;;;;;;;5.83;3.10;;;;;;;14.80;100.00;100483.38;5121167;27;20350;-84
2022/09/14 06:38:55;;;;;;;7.50;3.10;;;;;;;14.76;100.00;100484.94;5121287;27;20471;-84
2022/09/14 06:41:29;;;;;;;6.57;2.90;;;;;;;14.76;100.00;100477.56;5138008;27;20137;-84
2022/09/14 06:43:57;;;;;;;10.45;3.55;;;;;;;14.79;100.00;100474.31;5155425;27;20023;-84
2022/09/14 06:46:26;;;;;;;7.78;4.03;;;;;;;14.78;100.00;100466.38;5138042;27;20098;-84
2022/09/14 06:48:55;;;;;;;11.95;3.33;;;;;;;14.77;100.00;100470.22;5156584;27;20027;-84
2022/09/14 06:51:30;;;;;;;7.45;3.40;;;;;;;14.76;100.00;100465.81;5137818;27;20023;-84
2022/09/14 06:54:00;;;;;;;9.20;3.03;;;;;;;14.74;100.00;100464.16;5156469;27;20049;-83
2022/09/14 06:56:27;;;;;;;5.80;2.90;;;;;;;14.77;100.00;100456.56;5120274;27;20023;-84
2022/09/14 06:58:53;;;;;;;8.73;3.30;;;;;;;14.83;100.00;100452.81;5120479;27;20027;-83
2022/09/14 07:01:20;;;;;;;4.57;2.83;;;;;;;14.80;100.00;100454.13;5120849;27;20026;-87
2022/09/14 07:03:46;;;;;;;8.82;3.67;;;;;;;14.75;100.00;100454.09;5120595;27;20038;-86
2022/09/14 07:06:20;;;;;;;6.67;3.00;;;;;;;14.70;100.00;100449.38;5156451;27;20109;-87
2022/09/14 07:08:47;;;;;;;6.93;2.60;;;;;;;14.65;100.00;100445.75;5137499;27;20030;-86
2022/09/14 07:11:14;;;;;;;6.50;3.30;;;;;;;14.64;100.00;100449.56;5120442;27;20453;-86
2022/09/14 07:13:40;;;;;;;7.45;3.25;;;;;;;14.63;100.00;100448.75;5137441;27;20037;-86
2022/09/14 07:16:06;;;;;;;7.13;3.10;;;;;;;14.59;100.00;100447.56;5156103;27;20102;-86
2022/09/14 07:18:33;;;;;;;7.55;2.70;;;;;;;14.54;100.00;100444.72;5137399;27;20035;-87
2022/09/14 07:21:05;;;;;;;10.73;3.40;;;;;;;14.55;100.00;100449.94;5155899;27;20053;-86
2022/09/14 07:23:30;;;;;;;4.43;2.80;;;;;;;14.54;100.00;100442.84;5155806;27;20027;-87
2022/09/14 07:26:08;;;;;;;9.10;2.97;;;;;;;14.55;100.00;100439.03;5120066;27;20382;-85
2022/09/14 07:28:35;;;;;;;5.15;2.67;;;;;;;14.59;100.00;100438.53;5137051;27;20061;-87
2022/09/14 07:31:02;;;;;;;7.35;3.20;;;;;;;14.61;100.00;100442.69;5137159;27;20082;-85
2022/09/14 07:33:31;;;;;;;7.77;2.90;;;;;;;14.65;100.00;100438.38;5120515;27;20038;-85
2022/09/14 07:36:10;;;;;;;8.23;3.03;;;;;;;14.67;100.00;100441.66;5155838;27;20083;-86
2022/09/14 07:38:56;;;;;;;9.88;4.13;;;;;;;14.72;100.00;100449.94;5137317;27;20031;-85
2022/09/14 07:41:31;;;;;;;9.00;4.60;;;;;;;14.79;100.00;100441.56;5137162;27;20031;-85
2022/09/14 07:44:34;;;;;;;8.05;3.25;;;;;;;14.89;100.00;100438.94;5137377;27;20034;-86
2022/09/14 07:47:06;;;;;;;5.13;3.00;;;;;;;14.95;100.00;100436.28;5120328;27;20031;-86
2022/09/14 07:49:31;;;;;;;7.90;3.10;;;;;;;14.91;100.00;100436.81;5119776;27;20030;-86
2022/09/14 07:51:56;;;;;;;5.80;3.40;;;;;;;14.95;100.00;100434.38;5136954;27;20019;-85
2022/09/14 07:54:25;;;;;;;6.77;3.10;;;;;;;14.93;100.00;100435.75;5120230;27;20031;-86
2022/09/14 07:56:51;;;;;;;4.93;3.17;;;;;;;14.98;100.00;100443.97;5136517;27;20114;-85
2022/09/14 07:59:17;;;;;;;6.90;3.30;;;;;;;14.98;100.00;100438.50;5136697;27;20560;-86
2022/09/14 08:01:45;;;;;;;7.40;3.40;;;;;;;14.99;100.00;100441.00;5155175;27;20432;-86
2022/09/14 08:04:12;;;;;;;6.07;3.07;;;;;;;15.01;100.00;100438.00;5136893;27;20341;-86
2022/09/14 08:06:39;;;;;;;5.72;3.08;;;;;;;15.01;100.00;100440.72;5136850;27;20469;-86
2022/09/14 08:09:07;;;;;;;7.47;3.30;;;;;;;15.05;100.00;100430.97;5102560;27;20150;-86
2022/09/14 08:11:36;;;;;;;5.85;3.17;;;;;;;15.14;100.00;100436.78;5136252;27;20031;-86
2022/09/14 08:14:05;;;;;;;6.95;3.20;;;;;;;15.22;100.00;100434.44;5136821;27;20027;-86
2022/09/14 08:16:37;;;;;;;7.10;3.47;;;;;;;15.26;100.00;100432.84;5136746;27;20069;-86
2022/09/14 08:19:06;;;;;;;6.30;3.60;;;;;;;15.33;100.00;100426.34;5136943;27;20019;-86
2022/09/14 08:21:37;;;;;;;5.22;3.30;;;;;;;15.41;100.00;100437.66;5136099;27;20046;-86
2022/09/14 08:24:05;;;;;;;10.32;3.20;;;;;;;15.53;100.00;100432.03;5119588;27;20123;-86
2022/09/14 08:26:35;;;;;;;8.30;3.58;;;;;;;15.58;100.00;100440.25;5119066;27;20367;-86
2022/09/14 08:29:01;;;;;;;6.67;3.60;;;;;;;15.61;100.00;100439.75;5136496;27;20503;-86
2022/09/14 08:31:28;;;;;;;10.32;3.45;;;;;;;15.68;100.00;100433.22;5119728;27;20058;-85
2022/09/14 08:33:59;;;;;;;14.70;7.40;;;;;;;15.76;100.00;100444.53;5136518;27;20026;-86
2022/09/14 08:36:27;;;;;;;8.77;4.60;;;;;;;15.83;100.00;100438.06;5155046;27;20102;-86
2022/09/14 08:38:53;;;;;;;7.13;3.30;;;;;;;15.93;100.00;100444.44;5136680;27;20030;-85
2022/09/14 08:41:31;;;;;;;8.50;3.27;;;;;;;15.95;100.00;100441.44;5136534;27;20519;-85
2022/09/14 08:44:14;;;;;;;7.00;3.10;;;;;;;16.04;100.00;100441.78;5136223;27;20023;-86
2022/09/14 08:47:08;;;;;;;8.60;3.60;;;;;;;16.06;100.00;100442.34;5136605;27;20034;-86
2022/09/14 08:50:12;;;;;;;5.20;2.90;;;;;;;16.10;100.00;100444.28;5136329;27;20034;-86
2022/09/14 08:52:46;;;;;;;8.00;3.83;;;;;;;16.14;100.00;100450.88;5106496;27;20067;-86
2022/09/14 08:55:36;;;;;;;8.35;3.58;;;;;;;16.13;100.00;100449.22;5136256;27;20019;-86
2022/09/14 08:58:32;;;;;;;8.80;3.92;;;;;;;16.18;100.00;100445.72;5135958;27;20048;-86
2022/09/14 09:01:32;;;;;;;9.93;4.20;;;;;;;16.22;100.00;100446.00;5136726;27;20035;-86
2022/09/14 09:04:00;;;;;;;6.55;4.20;;;;;;;16.22;100.00;100441.34;5136107;27;20182;-86
2022/09/14 09:06:38;;;;;;;8.15;4.30;;;;;;;16.21;100.00;100449.84;5136742;27;20115;-86
2022/09/14 09:09:30;;;;;;;7.47;4.45;;;;;;;16.23;100.00;100443.00;5140117;27;20031;-86
2022/09/14 09:11:56;;;;;;;12.05;4.90;;;;;;;16.21;100.00;100450.69;5140266;27;20382;-86
2022/09/14 09:14:43;;;;;;;7.67;4.93;;;;;;;16.29;100.00;100452.91;5140006;27;20022;-87
2022/09/14 09:17:28;;;;;;;7.72;4.95;;;;;;;16.22;100.00;100451.50;5140140;27;20462;-86
2022/09/14 09:20:28;;;;;;;10.90;5.13;;;;;;;16.24;100.00;100441.94;5158565;27;20064;-86
2022/09/14 09:23:22;;;;;;;8.65;4.88;;;;;;;16.30;100.00;100442.81;5158431;27;20031;-86
2022/09/14 09:25:54;;;;;;;10.75;5.57;;;;;;;16.45;100.00;100442.06;5138441;27;20030;-86
2022/09/14 09:28:27;;;;;;;11.53;5.27;;;;;;;16.52;99.81;100442.66;5139744;27;20518;-86
2022/09/14 09:30:56;;;;;;;12.57;5.72;;;;;;;16.62;98.96;100436.41;5158118;27;20031;-86
2022/09/14 09:33:24;;;;;;;9.43;5.90;;;;;;;16.67;99.46;100434.50;5139712;27;20027;-86
2022/09/14 09:35:59;;;;;;;7.47;5.28;;;;;;;16.77;98.21;100430.16;5139752;27;20496;-86
2022/09/14 09:38:28;;;;;;;9.23;5.53;;;;;;;16.82;98.20;100427.47;5123388;27;20034;-85
2022/09/14 09:40:59;;;;;;;10.20;5.90;;;;;;;16.81;97.61;100426.63;5140160;27;20080;-86
2022/09/14 09:43:28;;;;;;;12.45;5.78;;;;;;;16.84;97.39;100439.81;5139697;27;20038;-86
2022/09/14 09:45:56;;;;;;;8.00;5.70;;;;;;;16.80;96.72;100437.84;5139448;27;20026;-86
2022/09/14 09:48:26;;;;;;;7.82;5.65;;;;;;;16.76;97.25;100432.09;5139520;27;20031;-86
2022/09/14 09:51:02;;;;;;;6.35;5.53;;;;;;;16.80;97.41;100437.84;5139288;27;20490;-86
2022/09/14 09:53:28;;;;;;;7.70;5.60;;;;;;;16.79;97.10;100445.25;5139379;27;20031;-85
2022/09/14 09:55:55;;;;;;;7.07;5.75;;;;;;;16.81;97.20;100437.59;5138830;27;20070;-86
2022/09/14 09:58:28;;;;;;;12.60;5.90;;;;;;;16.91;97.38;100442.31;5121661;27;20026;-86
2022/09/14 10:00:59;;;;;;;8.38;6.00;;;;;;;17.03;97.50;100439.34;5139350;27;20071;-86
2022/09/14 10:03:36;;;;;;;9.40;5.90;;;;;;;17.08;96.04;100431.16;5158034;27;20035;-86
2022/09/14 10:06:11;;;;;;;8.52;6.07;;;;;;;17.08;96.38;100439.38;5139154;27;20037;-86
2022/09/14 10:08:43;;;;;;;10.73;6.43;;;;;;;17.18;96.54;100435.84;5138980;27;20122;-86
2022/09/14 10:11:36;;;;;;;7.35;5.68;;;;;;;17.37;96.60;100444.38;5138900;27;20114;-86
2022/09/14 10:14:20;;;;;;;9.15;6.13;;;;;;;17.46;96.44;100442.75;5138845;27;20435;-86
2022/09/14 10:16:46;;;;;;;7.50;5.63;;;;;;;17.60;94.94;100442.22;5138782;27;20027;-86
2022/09/14 10:19:22;;;;;;;7.53;6.03;;;;;;;17.74;93.46;100440.59;5138794;27;20087;-86
2022/09/14 10:22:14;;;;;;;10.27;5.78;;;;;;;17.88;92.75;100438.16;5138287;27;20053;-86
2022/09/14 10:24:50;;;;;;;8.32;5.47;;;;;;;17.88;91.61;100435.41;5138808;27;20086;-86
2022/09/14 10:27:52;;;;;;;9.23;5.05;;;;;;;18.00;92.01;100432.41;5137991;27;20507;-86
2022/09/14 10:30:20;;;;;;;7.83;5.63;;;;;;;17.89;91.97;100450.75;5134334;27;20462;-86
2022/09/14 10:33:01;;;;;;;8.63;5.38;;;;;;;17.77;91.75;100440.06;5138568;27;20022;-86
2022/09/14 10:36:00;;;;;;;7.72;5.03;;;;;;;17.71;92.75;100444.72;5138290;27;20025;-86
2022/09/14 10:38:40;;;;;;;9.25;5.57;;;;;;;17.54;92.67;100441.41;5138925;27;20065;-86
2022/09/14 10:41:16;;;;;;;8.63;5.18;;;;;;;17.45;92.97;100438.38;5138264;27;20175;-86
2022/09/14 10:44:24;;;;;;;9.90;5.90;;;;;;;17.41;92.71;100429.03;5138469;27;20049;-86
2022/09/14 10:47:08;;;;;;;13.02;5.40;;;;;;;17.38;94.12;100432.34;5138372;27;20026;-86
2022/09/14 10:50:04;;;;;;;9.23;5.72;;;;;;;17.42;94.01;100421.63;5138082;27;20141;-86
2022/09/14 10:52:39;;;;;;;10.27;5.57;;;;;;;17.44;94.12;100433.19;5138587;27;20118;-85
2022/09/14 10:55:30;;;;;;;7.07;5.28;;;;;;;17.47;93.31;100438.13;5156423;27;20041;-86
2022/09/14 10:58:29;;;;;;;10.07;5.67;;;;;;;17.42;94.06;100438.94;5156041;27;20023;-85
2022/09/14 11:01:07;;;;;;;7.88;5.43;;;;;;;17.40;94.65;100443.84;5137836;27;20027;-85
2022/09/14 11:04:08;;;;;;;7.80;6.18;;;;;;;17.42;94.21;100430.72;5137777;27;20038;-86
2022/09/14 11:06:46;;;;;;;8.93;6.00;;;;;;;17.45;94.71;100435.66;5138078;27;20183;-86
2022/09/14 11:09:31;;;;;;;12.45;6.75;;;;;;;17.43;94.39;100428.78;5156495;27;20029;-86
2022/09/14 11:12:07;;;;;;;8.57;6.27;;;;;;;17.43;94.94;100426.03;5156483;27;20052;-86
2022/09/14 11:15:03;;;;;;;9.75;5.43;;;;;;;17.40;94.17;100421.09;5137598;27;20026;-86
2022/09/14 11:18:04;;;;;;;7.82;4.65;;;;;;;17.30;92.55;100409.03;5137524;27;20030;-85
2022/09/14 11:20:59;;;;;;;5.45;4.55;;;;;;;17.21;93.30;100412.56;5134012;27;20475;-86
2022/09/14 11:23:54;;;;;;;7.05;4.25;;;;;;;17.22;93.64;100415.03;5133775;27;20035;-88
2022/09/14 11:26:39;;;;;;;6.57;4.50;;;;;;;17.17;93.04;100409.53;5134880;27;20027;-86
2022/09/14 11:29:23;;;;;;;10.98;4.38;;;;;;;17.16;91.68;100410.63;5133897;27;20069;-86
2022/09/14 11:31:54;;;;;;;6.93;4.07;;;;;;;17.05;93.31;100408.94;5133525;27;20413;-85
2022/09/14 11:34:26;;;;;;;7.28;3.72;;;;;;;16.99;90.91;100413.56;5133982;27;20046;-86
2022/09/14 11:36:55;;;;;;;6.35;3.50;;;;;;;16.96;93.29;100403.16;5133804;27;20034;-86
2022/09/14 11:39:34;;;;;;;4.97;3.20;;;;;;;16.98;93.72;100406.47;5135238;27;20027;-86
2022/09/14 11:42:06;;;;;;;7.70;3.35;;;;;;;16.93;92.78;100411.91;5133439;27;20072;-86